Silverthorne, CO

10:40 PM MDT del 31 Marzo 2015 (GMT -0600)
Kremmling | | Change Station
CLOSE
Current Station
Aeroporto
Location: Kremmling,
Altitudine: 7411 ft
Stazioni meteo nelle vicinanze

Alt. 7411 ft 40.05 °N, 106.37 °W | Updated 5 minutes ago

Sereno
Sereno
45 °F
Sembra 45 °F
N
0
Vento Variabile Vento da Nord

Oggi
Massima -- | Minima -- °F
--% Possibilità di precip.
Ieri
Massima -- | Minima -- °F
Precip. -- in
6:51 AM 7:28 PM
Gobba a ponente, 90% visible
Pressione 29.97 in
Visibilità 10.0 miglia
Nuvole Nubi sparse 10000 ft
Punto di rugiada 23 °F
Umidità 43%
Piovosità 0.00 in
Spessore del manto nevoso Non disponibile.
Raggi UV 0 fuori da 12
Polline 10.90 fuori da 12
Qualità dell'aria Non disponibile.
Flu Activity Non disponibile.
METAR K20V 010435Z AUTO 00000KT 10SM SCT100 07/M05 A2997 RMK AO2

More Conditions Fewer Conditions

Pressione 29.97 in
Visibilità 10.0 miglia
Nuvole Nubi sparse 10000 ft
Punto di rugiada 23 °F
Umidità 43%
Piovosità 0.00 in
Spessore del manto nevoso Non disponibile.
Raggi UV 0 fuori da 12
Polline 10.90 fuori da 12
Qualità dell'aria Non disponibile.
Flu Activity Non disponibile.
METAR K20V 010435Z AUTO 00000KT 10SM SCT100 07/M05 A2997 RMK AO2

More Conditions Fewer Conditions

10-Day Weather Forecast

Almanac

Astronomia

Mar. 31, 2015 Alba Tramonto
Ora attuale
Crepuscolo civile
Crepuscolo nautico
Crepuscolo astronomico
Luna
Estensione della luce visibile
Lunghezza del giorno
Tomorrow will be .
, % of the Moon is Illuminated

Gli estremi di oggi

State Highs State Lows

Community

WunderPhotos

Upload Photos

1,809,919 foto caricate!

WunderBlogs® & News

Nearby

Qualità dell'aria

  Qualità dell'aria Indice AQ Inquinante
Not available.

Profondità neve

Stazione Profondità Altitudine

Attività sismica

Città  Distanza Mag. Data & Ora
Minimo Magnitudo Mostrato è 2.5.

Temperature delle acque costiere

Località Temperatura

Stations

Stazioni meteo nelle vicinanze

Ubicazione della stazione Temp. Raffreddamento del vento Punto di rugiada Umidità Vento Precip. Alt. Aggiornato Tipo